createdAt,value
2018-10-21T00:01:25.999Z,45.17
2018-10-21T00:03:59.809Z,43.23
2018-10-21T00:06:33.708Z,46.27
2018-10-21T00:09:10.391Z,46.23
2018-10-21T00:11:44.225Z,46.80
2018-10-21T00:14:17.964Z,44.33
2018-10-21T00:16:51.823Z,49.67
2018-10-21T00:19:26.634Z,48.07
2018-10-21T00:22:00.523Z,49.13
2018-10-21T00:24:34.288Z,44.37
2018-10-21T00:27:08.370Z,47.87
2018-10-21T00:29:42.142Z,48.63
2018-10-21T00:32:15.929Z,44.73
2018-10-21T00:34:49.646Z,47.67
2018-10-21T00:37:23.511Z,48.30
2018-10-21T00:39:57.237Z,47.03
2018-10-21T00:42:31.046Z,43.53
2018-10-21T00:45:05.712Z,42.83
2018-10-21T00:47:46.020Z,46.63
2018-10-21T00:50:19.928Z,49.30
2018-10-21T00:52:53.797Z,48.87
2018-10-21T00:55:33.930Z,46.07
2018-10-21T00:58:07.779Z,55.40
2018-10-21T01:00:41.639Z,45.60
2018-10-21T01:03:21.745Z,46.13
2018-10-21T01:05:55.683Z,49.80
2018-10-21T01:08:29.483Z,46.23
2018-10-21T01:11:03.120Z,42.07
2018-10-21T01:13:36.973Z,44.90
2018-10-21T01:16:10.923Z,48.80
2018-10-21T01:18:44.848Z,45.77
2018-10-21T01:21:18.785Z,51.43
2018-10-21T01:23:52.861Z,46.50
2018-10-21T01:26:33.037Z,50.90
2018-10-21T01:29:06.839Z,53.30
2018-10-21T01:31:40.566Z,51.07
2018-10-21T01:34:14.397Z,51.80
2018-10-21T01:36:48.283Z,47.00
2018-10-21T01:39:30.453Z,49.77
2018-10-21T01:44:44.872Z,44.63
2018-10-21T01:47:18.544Z,51.17
2018-10-21T01:49:52.306Z,61.50
2018-10-21T01:52:26.141Z,53.10
2018-10-21T01:54:59.838Z,50.13
2018-10-21T01:57:33.619Z,51.37
2018-10-21T02:00:07.372Z,47.77
2018-10-21T02:02:41.028Z,49.33
2018-10-21T02:05:14.715Z,50.00
2018-10-21T02:07:48.431Z,50.50
2018-10-21T02:10:22.473Z,51.10
2018-10-21T02:12:56.316Z,51.83
2018-10-21T02:15:30.249Z,53.50
2018-10-21T02:18:04.230Z,50.40
2018-10-21T02:20:38.302Z,47.17
2018-10-21T02:23:12.048Z,53.37
2018-10-21T02:25:46.043Z,47.10
2018-10-21T02:28:19.912Z,51.53
2018-10-21T02:30:53.917Z,53.87
2018-10-21T02:33:27.947Z,51.43
2018-10-21T02:36:01.764Z,47.57
2018-10-21T02:38:35.731Z,53.33
2018-10-21T02:41:54.120Z,52.90
2018-10-21T02:44:27.816Z,57.10
2018-10-21T02:47:08.179Z,51.67
2018-10-21T02:49:41.885Z,49.80
2018-10-21T02:52:15.670Z,47.73
2018-10-21T02:54:50.300Z,50.43
2018-10-21T02:57:30.504Z,62.37
2018-10-21T03:00:04.403Z,52.93
2018-10-21T03:02:37.991Z,51.57
2018-10-21T03:05:12.619Z,50.10
2018-10-21T03:07:46.396Z,49.40
2018-10-21T03:10:20.123Z,51.17
2018-10-21T03:12:53.926Z,45.00
2018-10-21T03:15:27.642Z,49.90
2018-10-21T03:18:01.464Z,56.53
2018-10-21T03:20:35.273Z,50.83
2018-10-21T03:23:09.154Z,45.73
2018-10-21T03:25:44.300Z,48.37
2018-10-21T03:28:18.126Z,47.90
2018-10-21T03:30:51.984Z,44.77
2018-10-21T03:33:32.656Z,52.30
2018-10-21T03:36:06.654Z,49.03
2018-10-21T03:38:46.780Z,49.47
2018-10-21T03:41:20.492Z,47.63
2018-10-21T03:43:54.343Z,46.90
2018-10-21T03:46:27.891Z,50.07
2018-10-21T03:49:01.799Z,45.77
2018-10-21T03:51:35.342Z,47.67
2018-10-21T03:54:09.163Z,45.93
2018-10-21T03:56:42.808Z,48.87
2018-10-21T03:59:16.519Z,50.60
2018-10-21T04:01:50.723Z,45.33
2018-10-21T04:04:24.429Z,43.47
2018-10-21T04:06:58.027Z,50.37
2018-10-21T04:09:32.624Z,47.73
2018-10-21T04:12:06.199Z,46.00
2018-10-21T04:14:40.033Z,53.20
2018-10-21T04:17:13.775Z,57.73
2018-10-21T04:19:47.402Z,50.90
2018-10-21T04:22:21.186Z,50.77
2018-10-21T04:24:55.092Z,46.93
2018-10-21T04:27:28.878Z,46.47
2018-10-21T04:30:02.665Z,50.07
2018-10-21T04:32:43.658Z,48.60
2018-10-21T04:35:23.957Z,51.47
2018-10-21T04:40:14.054Z,46.93
2018-10-21T04:42:48.006Z,49.57
2018-10-21T04:45:22.326Z,48.70
2018-10-21T04:47:56.756Z,56.50
2018-10-21T04:50:30.808Z,52.27
2018-10-21T04:53:04.858Z,41.43
2018-10-21T04:55:45.057Z,52.93
2018-10-21T04:58:18.779Z,57.53
2018-10-21T05:00:52.619Z,54.50
2018-10-21T05:03:27.457Z,52.93
2018-10-21T05:06:02.000Z,54.10
2018-10-21T05:08:35.675Z,55.47
2018-10-21T05:11:10.456Z,48.43
2018-10-21T05:13:44.291Z,51.90
2018-10-21T05:16:18.833Z,54.87
2018-10-21T05:18:52.652Z,56.67
2018-10-21T05:21:26.437Z,65.93
2018-10-21T05:24:00.158Z,57.00
2018-10-21T05:26:40.667Z,59.00
2018-10-21T05:29:15.258Z,61.37
2018-10-21T05:31:48.854Z,63.30
2018-10-21T05:34:22.380Z,58.10
2018-10-21T05:36:56.300Z,54.33
2018-10-21T05:39:31.026Z,63.87
2018-10-21T05:42:04.906Z,59.20
2018-10-21T05:44:39.865Z,60.53
2018-10-21T05:47:13.730Z,56.53
2018-10-21T05:49:47.381Z,65.50
2018-10-21T05:52:21.295Z,60.17
2018-10-21T05:55:01.487Z,58.63
2018-10-21T05:57:35.539Z,59.93
2018-10-21T06:00:11.679Z,58.50
2018-10-21T06:02:46.216Z,59.40
2018-10-21T06:05:34.196Z,63.57
2018-10-21T06:08:09.021Z,60.17
2018-10-21T06:10:43.206Z,67.33
2018-10-21T06:13:16.952Z,61.33
2018-10-21T06:15:50.695Z,66.67
2018-10-21T06:18:26.419Z,64.27
2018-10-21T06:21:06.277Z,57.80
2018-10-21T06:23:39.929Z,65.03
2018-10-21T06:26:13.471Z,61.53
2018-10-21T06:28:53.604Z,64.73
2018-10-21T06:31:28.380Z,67.70
2018-10-21T06:34:08.377Z,64.23
2018-10-21T06:36:43.161Z,62.27
2018-10-21T06:39:16.946Z,70.07
2018-10-21T06:41:51.342Z,64.33
2018-10-21T06:44:31.251Z,68.00
2018-10-21T06:47:04.979Z,59.40
2018-10-21T06:49:38.864Z,61.23
2018-10-21T06:52:18.967Z,60.60
2018-10-21T06:54:58.821Z,58.00
2018-10-21T06:57:32.741Z,63.93
2018-10-21T07:00:09.773Z,58.20
2018-10-21T07:02:43.781Z,59.57
2018-10-21T07:05:29.282Z,63.67
2018-10-21T07:08:03.027Z,60.13
2018-10-21T07:12:06.358Z,59.57
2018-10-21T07:14:39.934Z,64.60
2018-10-21T07:17:13.762Z,58.37
2018-10-21T07:19:47.686Z,65.17
2018-10-21T07:22:27.970Z,57.53
2018-10-21T07:25:09.214Z,60.37
2018-10-21T07:27:42.810Z,59.53
2018-10-21T07:30:16.891Z,58.70
2018-10-21T07:32:56.802Z,64.07
2018-10-21T07:35:30.643Z,59.93
2018-10-21T07:38:04.351Z,56.53
2018-10-21T07:40:38.321Z,55.87
2018-10-21T07:43:18.283Z,57.20
2018-10-21T07:45:52.178Z,59.53
2018-10-21T07:48:26.071Z,62.97
2018-10-21T07:50:59.798Z,59.50
2018-10-21T07:53:33.362Z,57.97
2018-10-21T07:56:13.447Z,58.73
2018-10-21T07:58:48.181Z,56.67
2018-10-21T08:01:22.145Z,68.67
2018-10-21T08:03:56.018Z,65.07
2018-10-21T08:06:41.199Z,64.63
2018-10-21T08:09:14.740Z,57.20
2018-10-21T08:11:48.622Z,58.53
2018-10-21T08:14:22.343Z,61.43
2018-10-21T08:16:57.050Z,59.50
2018-10-21T08:19:31.034Z,71.93
2018-10-21T08:22:05.072Z,61.83
2018-10-21T08:24:38.805Z,59.40
2018-10-21T08:27:18.992Z,61.47
2018-10-21T08:29:52.644Z,58.43
2018-10-21T08:32:26.650Z,63.73
2018-10-21T08:34:54.419Z,58.53
2018-10-21T08:37:28.344Z,61.80
2018-10-21T08:40:08.559Z,65.77
2018-10-21T08:42:42.334Z,62.83
2018-10-21T08:45:16.232Z,61.50
2018-10-21T08:47:50.171Z,56.77
2018-10-21T08:50:24.684Z,63.97
2018-10-21T08:52:59.259Z,59.70
2018-10-21T08:55:32.910Z,59.73
2018-10-21T08:58:06.707Z,55.47
2018-10-21T09:00:40.368Z,57.67
2018-10-21T09:03:15.049Z,55.33
2018-10-21T09:05:49.574Z,62.27
2018-10-21T09:08:23.109Z,64.07
2018-10-21T09:11:03.194Z,56.40
2018-10-21T09:13:36.913Z,56.63
2018-10-21T09:16:10.609Z,57.23
2018-10-21T09:18:44.164Z,56.53
2018-10-21T09:21:19.831Z,60.63
2018-10-21T09:23:53.688Z,58.03
2018-10-21T09:26:28.161Z,49.20
2018-10-21T09:29:02.102Z,52.17
2018-10-21T09:31:35.763Z,55.93
2018-10-21T09:34:10.483Z,61.97
2018-10-21T09:36:44.098Z,59.63
2018-10-21T09:39:18.834Z,55.90
2018-10-21T09:41:52.436Z,50.87
2018-10-21T09:44:26.179Z,50.17
2018-10-21T09:47:07.696Z,53.40
2018-10-21T09:49:41.868Z,55.97
2018-10-21T09:52:15.479Z,45.80
2018-10-21T09:54:55.458Z,50.73
2018-10-21T09:57:35.551Z,53.70
2018-10-21T10:00:21.578Z,53.60
2018-10-21T10:03:01.046Z,44.77
2018-10-21T10:05:34.673Z,48.97
2018-10-21T10:08:08.270Z,51.50
2018-10-21T10:10:42.028Z,52.50
2018-10-21T10:13:16.790Z,48.47
2018-10-21T10:15:50.596Z,41.73
2018-10-21T10:18:24.584Z,41.47
2018-10-21T10:21:05.147Z,39.90
2018-10-21T10:23:32.917Z,42.83
2018-10-21T10:26:01.136Z,39.73
2018-10-21T10:28:35.716Z,38.17
2018-10-21T10:31:09.733Z,38.97
2018-10-21T10:33:43.650Z,43.23
2018-10-21T10:36:17.694Z,42.00
2018-10-21T10:38:52.498Z,44.97
2018-10-21T10:41:26.320Z,37.10
2018-10-21T10:44:00.118Z,41.93
2018-10-21T10:46:33.919Z,40.27
2018-10-21T10:49:07.704Z,34.78
2018-10-21T10:51:42.561Z,44.67
2018-10-21T10:54:22.849Z,41.97
2018-10-21T10:57:10.021Z,40.00
2018-10-21T10:59:44.871Z,32.40
2018-10-21T11:02:18.601Z,30.90
2018-10-21T11:04:52.335Z,30.07
2018-10-21T11:07:26.145Z,37.70
2018-10-21T11:10:08.020Z,30.30
2018-10-21T11:12:41.613Z,40.07
2018-10-21T11:15:15.375Z,36.63
2018-10-21T11:17:49.094Z,31.57
2018-10-21T11:20:29.097Z,37.47
2018-10-21T11:23:09.277Z,27.37
2018-10-21T11:25:49.456Z,27.23
2018-10-21T11:28:29.441Z,27.40
2018-10-21T11:31:09.496Z,26.97
2018-10-21T11:33:49.663Z,24.70
2018-10-21T11:36:23.419Z,26.57
2018-10-21T11:38:57.246Z,28.90
2018-10-21T11:41:31.307Z,31.17
2018-10-21T11:44:11.496Z,33.63
2018-10-21T11:46:45.228Z,26.25
2018-10-21T11:49:25.400Z,27.93
2018-10-21T11:51:59.239Z,30.85
2018-10-21T11:54:32.920Z,27.40
2018-10-21T11:57:06.591Z,34.00
2018-10-21T11:59:40.432Z,31.37
2018-10-21T12:02:20.503Z,28.35
2018-10-21T12:05:00.641Z,37.50
2018-10-21T12:07:34.407Z,26.17
2018-10-21T12:10:08.493Z,28.57
2018-10-21T12:12:42.174Z,27.17
2018-10-21T12:15:17.820Z,27.55
2018-10-21T12:17:53.779Z,31.03
2018-10-21T12:20:33.817Z,27.30
2018-10-21T12:23:13.967Z,29.77
2018-10-21T12:25:50.069Z,23.95
2018-10-21T12:28:23.851Z,30.65
2018-10-21T12:30:58.699Z,28.57
2018-10-21T12:33:38.089Z,30.47
2018-10-21T12:36:12.733Z,24.77
2018-10-21T12:38:46.440Z,26.65
2018-10-21T12:41:20.377Z,24.55
2018-10-21T12:43:54.200Z,22.73
2018-10-21T12:46:27.757Z,29.70
2018-10-21T12:49:01.968Z,30.25
2018-10-21T12:51:35.757Z,28.32
2018-10-21T12:54:09.613Z,27.65
2018-10-21T12:56:43.588Z,25.68
2018-10-21T12:59:23.736Z,27.70
2018-10-21T13:01:57.620Z,25.32
2018-10-21T13:04:31.485Z,24.32
2018-10-21T13:07:05.544Z,23.52
2018-10-21T13:09:45.410Z,26.82
2018-10-21T13:12:20.141Z,28.20
2018-10-21T13:14:58.162Z,26.50
2018-10-21T13:17:32.791Z,28.23
2018-10-21T13:20:13.163Z,28.67
2018-10-21T13:22:47.011Z,32.03
2018-10-21T13:25:21.495Z,34.67
2018-10-21T13:28:01.897Z,24.67
2018-10-21T13:30:35.582Z,27.50
2018-10-21T13:33:15.762Z,26.17
2018-10-21T13:35:54.703Z,26.95
2018-10-21T13:38:28.502Z,29.18
2018-10-21T13:41:08.608Z,34.10
2018-10-21T13:43:42.359Z,28.47
2018-10-21T13:46:16.135Z,30.05
2018-10-21T13:48:56.203Z,32.33
2018-10-21T13:51:29.928Z,30.05
2018-10-21T13:54:10.113Z,25.12
2018-10-21T13:56:44.037Z,26.23
2018-10-21T13:59:24.123Z,24.00
2018-10-21T14:01:57.961Z,29.63
2018-10-21T14:04:32.615Z,22.22
2018-10-21T14:07:06.572Z,26.10
2018-10-21T14:09:46.639Z,23.20
2018-10-21T14:12:27.007Z,25.85
2018-10-21T14:15:00.818Z,30.72
2018-10-21T14:17:41.513Z,23.07
2018-10-21T14:20:15.324Z,24.07
2018-10-21T14:22:55.458Z,26.17
2018-10-21T14:25:29.119Z,28.02
2018-10-21T14:28:02.921Z,32.42
2018-10-21T14:30:36.895Z,31.87
2018-10-21T14:33:10.583Z,28.30
2018-10-21T14:35:44.484Z,30.80
2018-10-21T14:38:19.287Z,25.93
2018-10-21T14:40:59.370Z,28.07
2018-10-21T14:43:33.339Z,27.63
2018-10-21T14:46:13.586Z,29.85
2018-10-21T14:48:53.502Z,32.17
2018-10-21T14:51:28.110Z,29.20
2018-10-21T14:54:01.818Z,25.93
2018-10-21T14:56:35.720Z,25.07
2018-10-21T14:59:15.920Z,35.47
2018-10-21T15:01:49.745Z,27.37
2018-10-21T15:04:29.915Z,30.10
2018-10-21T15:07:04.955Z,24.67
2018-10-21T15:09:39.046Z,27.40
2018-10-21T15:12:12.689Z,32.57
2018-10-21T15:14:53.198Z,28.33
2018-10-21T15:17:27.784Z,31.53
2018-10-21T15:20:01.743Z,28.63
2018-10-21T15:22:35.499Z,26.47
2018-10-21T15:25:15.770Z,29.70
2018-10-21T15:27:49.661Z,22.13
2018-10-21T15:30:23.403Z,33.27
2018-10-21T15:32:59.091Z,29.60
2018-10-21T15:35:39.136Z,28.57
2018-10-21T15:38:13.375Z,25.97
2018-10-21T15:40:48.021Z,24.80
2018-10-21T15:43:21.840Z,25.27
2018-10-21T15:45:55.669Z,23.20
2018-10-21T15:48:29.355Z,24.07
2018-10-21T15:51:09.547Z,22.50
2018-10-21T15:53:49.669Z,29.67
2018-10-21T15:56:29.668Z,23.30
2018-10-21T15:59:04.499Z,30.00
2018-10-21T16:01:38.412Z,35.50
2018-10-21T16:04:12.060Z,22.83
2018-10-21T16:06:52.103Z,24.10
2018-10-21T16:09:26.819Z,21.37
2018-10-21T16:12:00.429Z,23.07
2018-10-21T16:14:40.530Z,22.83
2018-10-21T16:17:14.283Z,22.83
2018-10-21T16:19:49.145Z,22.70
2018-10-21T16:22:22.787Z,23.03
2018-10-21T16:25:03.038Z,21.47
2018-10-21T16:27:36.835Z,20.37
2018-10-21T16:30:13.237Z,23.17
2018-10-21T16:32:53.183Z,26.10
2018-10-21T16:35:26.988Z,30.53
2018-10-21T16:38:00.603Z,21.47
2018-10-21T16:40:40.760Z,24.87
2018-10-21T16:43:14.614Z,25.87
2018-10-21T16:45:48.201Z,23.50
2018-10-21T16:48:22.666Z,25.60
2018-10-21T16:50:56.496Z,27.53
2018-10-21T16:53:36.454Z,26.90
2018-10-21T16:56:10.242Z,24.17
2018-10-21T16:58:44.013Z,25.27
2018-10-21T17:01:24.469Z,25.73
2018-10-21T17:03:58.352Z,27.83
2018-10-21T17:06:32.127Z,27.67
2018-10-21T17:09:09.675Z,28.60
2018-10-21T17:11:43.973Z,28.20
2018-10-21T17:14:24.112Z,26.47
2018-10-21T17:16:57.735Z,26.03
2018-10-21T17:19:31.498Z,28.33
2018-10-21T17:22:05.042Z,24.60
2018-10-21T17:24:38.646Z,25.40
2018-10-21T17:27:12.260Z,26.70
2018-10-21T17:29:52.449Z,20.43
2018-10-21T17:32:26.258Z,23.07
2018-10-21T17:35:01.175Z,23.97
2018-10-21T17:37:41.338Z,29.70
2018-10-21T17:40:15.126Z,28.10
2018-10-21T17:42:48.882Z,26.57
2018-10-21T17:45:22.616Z,25.13
2018-10-21T17:47:56.520Z,27.40
2018-10-21T17:50:30.388Z,27.03
2018-10-21T17:53:05.018Z,25.87
2018-10-21T17:55:38.968Z,25.20
2018-10-21T17:58:18.944Z,25.73
2018-10-21T18:00:59.018Z,25.90
2018-10-21T18:03:32.798Z,28.37
2018-10-21T18:06:06.686Z,27.10
2018-10-21T18:08:41.349Z,24.17
2018-10-21T18:11:21.422Z,30.97
2018-10-21T18:13:55.309Z,35.40
2018-10-21T18:16:28.946Z,29.03
2018-10-21T18:19:04.396Z,32.13
2018-10-21T18:21:44.526Z,30.37
2018-10-21T18:24:19.220Z,30.90
2018-10-21T18:26:52.945Z,32.10
2018-10-21T18:29:26.506Z,37.70
2018-10-21T18:31:59.950Z,39.30
2018-10-21T18:34:40.209Z,44.10
2018-10-21T18:37:13.996Z,35.80
2018-10-21T18:39:47.606Z,40.53
2018-10-21T18:42:27.831Z,40.57
2018-10-21T18:45:02.388Z,41.07
2018-10-21T18:47:37.212Z,37.90
2018-10-21T18:50:12.151Z,39.50
2018-10-21T18:52:45.737Z,37.17
2018-10-21T18:55:20.644Z,37.30
2018-10-21T18:57:54.370Z,41.70
2018-10-21T19:00:28.156Z,41.50
2018-10-21T19:03:08.337Z,43.47
2018-10-21T19:05:41.938Z,35.87
2018-10-21T19:08:15.566Z,38.97
2018-10-21T19:10:49.189Z,35.67
2018-10-21T19:13:22.932Z,41.83
2018-10-21T19:16:03.076Z,35.63
2018-10-21T19:18:36.685Z,35.60
2018-10-21T19:21:11.305Z,36.17
2018-10-21T19:23:45.235Z,32.67
2018-10-21T19:26:25.353Z,33.73
2018-10-21T19:29:05.410Z,31.70
2018-10-21T19:31:40.082Z,33.43
2018-10-21T19:34:13.806Z,29.00
2018-10-21T19:36:53.845Z,30.53
2018-10-21T19:39:28.570Z,29.37
2018-10-21T19:42:02.402Z,28.27
2018-10-21T19:44:36.119Z,31.53
2018-10-21T19:47:16.108Z,42.67
2018-10-21T19:49:49.594Z,32.80
2018-10-21T19:52:23.112Z,32.33
2018-10-21T19:54:57.000Z,36.83
2018-10-21T19:57:36.894Z,31.63
2018-10-21T20:00:17.177Z,30.43
2018-10-21T20:02:57.244Z,33.37
2018-10-21T20:05:37.190Z,29.07
2018-10-21T20:08:10.970Z,28.30
2018-10-21T20:10:44.529Z,31.53
2018-10-21T20:13:18.384Z,31.43
2018-10-21T20:15:58.496Z,32.83
2018-10-21T20:18:31.992Z,29.77
2018-10-21T20:21:05.705Z,36.17
2018-10-21T20:23:39.282Z,30.57
2018-10-21T20:26:13.171Z,31.73
2018-10-21T20:28:47.094Z,34.47
2018-10-21T20:31:20.804Z,36.30
2018-10-21T20:33:54.356Z,40.43
2018-10-21T20:36:28.034Z,36.57
2018-10-21T20:39:01.782Z,29.93
2018-10-21T20:41:35.474Z,36.40
2018-10-21T20:44:15.586Z,29.40
2018-10-21T20:46:49.224Z,39.17
2018-10-21T20:49:23.058Z,33.97
2018-10-21T20:52:03.183Z,28.80
2018-10-21T20:54:43.372Z,33.40
2018-10-21T20:57:23.443Z,33.50
2018-10-21T20:59:57.278Z,42.20
2018-10-21T21:02:32.009Z,33.93
2018-10-21T21:05:11.911Z,35.93
2018-10-21T21:07:45.542Z,36.90
2018-10-21T21:10:19.263Z,32.03
2018-10-21T21:12:52.968Z,36.07
2018-10-21T21:15:32.912Z,33.43
2018-10-21T21:18:06.632Z,40.40
2018-10-21T21:20:41.307Z,37.93
2018-10-21T21:23:14.939Z,35.93
2018-10-21T21:25:48.867Z,36.53
2018-10-21T21:28:24.543Z,36.17
2018-10-21T21:30:58.320Z,34.43
2018-10-21T21:33:32.112Z,36.90
2018-10-21T21:36:06.003Z,38.67
2018-10-21T21:38:40.498Z,35.63
2018-10-21T21:41:14.193Z,37.33
2018-10-21T21:43:47.860Z,37.30
2018-10-21T21:46:21.516Z,38.10
2018-10-21T21:49:01.639Z,40.27
2018-10-21T21:51:35.412Z,38.63
2018-10-21T21:54:10.770Z,35.63
2018-10-21T21:56:45.094Z,37.30
2018-10-21T21:59:18.813Z,40.97
2018-10-21T22:01:52.318Z,39.50
2018-10-21T22:04:32.393Z,42.77
2018-10-21T22:07:07.066Z,40.60
2018-10-21T22:09:40.826Z,41.27
2018-10-21T22:12:14.439Z,33.30
2018-10-21T22:14:48.100Z,46.00
2018-10-21T22:17:21.663Z,37.00
2018-10-21T22:19:55.367Z,42.60
2018-10-21T22:22:29.054Z,43.73
2018-10-21T22:25:02.776Z,47.77
2018-10-21T22:27:42.700Z,45.40
2018-10-21T22:30:22.708Z,43.53
2018-10-21T22:32:56.324Z,47.60
2018-10-21T22:35:30.036Z,46.00
2018-10-21T22:38:04.249Z,42.10
2018-10-21T22:40:37.836Z,40.63
2018-10-21T22:43:11.490Z,55.13
2018-10-21T22:45:45.096Z,55.67
2018-10-21T22:48:18.714Z,44.27
2018-10-21T22:50:52.281Z,44.23
2018-10-21T22:53:26.871Z,43.67
2018-10-21T22:56:00.538Z,47.17
2018-10-21T22:58:34.176Z,42.33
2018-10-21T23:01:08.975Z,48.33
2018-10-21T23:03:42.632Z,48.27
2018-10-21T23:06:16.369Z,42.70
2018-10-21T23:08:57.022Z,48.67
2018-10-21T23:11:30.599Z,49.63
2018-10-21T23:14:10.984Z,55.97
2018-10-21T23:16:44.550Z,42.80
2018-10-21T23:19:37.050Z,46.53
2018-10-21T23:22:10.672Z,44.53
2018-10-21T23:24:44.131Z,44.57
2018-10-21T23:27:18.835Z,46.30
2018-10-21T23:29:52.457Z,47.97
2018-10-21T23:32:26.002Z,44.57
2018-10-21T23:35:06.311Z,49.10
2018-10-21T23:37:39.853Z,45.57
2018-10-21T23:40:13.536Z,50.73
2018-10-21T23:42:47.214Z,50.80
2018-10-21T23:45:20.786Z,51.07
2018-10-21T23:47:54.412Z,57.20
2018-10-21T23:50:28.015Z,50.23
2018-10-21T23:53:02.776Z,47.30
2018-10-21T23:55:36.335Z,45.37
2018-10-21T23:58:10.019Z,50.60
